Time;durP1;ratioP1;P1;durP2;ratioP2;P2;SDS_P1;SDS_P2;PMS_P1;PMS_P2;Temp;Humidity;BMP_temperature;BMP_pressure;BME280_temperature;BME280_humidity;BME280_pressure;Samples;Min_cycle;Max_cycle;Signal;HPM_P1;HPM_P2
2022/09/29 00:00:08;;;;;;;2.15;1.95;;;9.30;99.90;;;;;;5111854;28;20395;-72
2022/09/29 00:02:34;;;;;;;1.70;1.58;;;9.30;99.90;;;;;;5112284;28;20393;-73
2022/09/29 00:04:59;;;;;;;2.43;1.50;;;9.30;99.90;;;;;;5112482;28;20379;-72
2022/09/29 00:07:25;;;;;;;2.67;1.90;;;9.40;99.90;;;;;;5112696;28;20380;-73
2022/09/29 00:09:50;;;;;;;2.57;1.90;;;9.50;99.90;;;;;;5094273;28;20475;-73
2022/09/29 00:12:16;;;;;;;3.17;1.90;;;9.40;99.90;;;;;;5112516;28;20388;-72
2022/09/29 00:14:41;;;;;;;1.63;1.53;;;9.50;99.90;;;;;;5112190;28;20377;-73
2022/09/29 00:17:07;;;;;;;1.60;1.50;;;9.40;99.90;;;;;;5112180;28;20411;-73
2022/09/29 00:19:32;;;;;;;1.50;1.40;;;9.50;99.90;;;;;;5112434;28;20368;-72
2022/09/29 00:21:58;;;;;;;2.50;1.40;;;9.40;99.90;;;;;;5111576;28;20388;-72
2022/09/29 00:24:25;;;;;;;1.50;1.40;;;9.40;99.90;;;;;;5091722;28;20378;-73
2022/09/29 00:26:50;;;;;;;1.80;1.50;;;9.30;99.90;;;;;;5091730;28;20386;-72
2022/09/29 00:29:16;;;;;;;1.50;1.40;;;9.40;99.90;;;;;;5091875;28;20427;-73
2022/09/29 00:31:41;;;;;;;4.67;1.47;;;9.40;99.90;;;;;;5091838;28;20552;-73
2022/09/29 00:34:07;;;;;;;1.80;1.40;;;9.40;99.90;;;;;;5091393;28;20401;-72
2022/09/29 00:36:32;;;;;;;1.70;1.40;;;9.40;99.90;;;;;;5096185;28;20445;-72
2022/09/29 00:38:58;;;;;;;1.85;1.48;;;9.30;99.90;;;;;;5112083;28;20878;-73
2022/09/29 00:41:28;;;;;;;2.60;1.55;;;9.40;99.90;;;;;;5111827;28;21022;-72
2022/09/29 00:43:59;;;;;;;2.10;1.50;;;9.30;99.90;;;;;;5111660;28;20433;-72
2022/09/29 00:46:27;;;;;;;2.80;1.40;;;9.30;99.90;;;;;;5112019;28;20384;-73
2022/09/29 00:48:57;;;;;;;2.22;1.42;;;9.40;99.90;;;;;;5111784;28;20376;-73
2022/09/29 00:51:26;;;;;;;1.77;1.60;;;9.40;99.90;;;;;;5111825;28;20747;-73
2022/09/29 00:53:51;;;;;;;1.40;1.30;;;9.30;99.90;;;;;;5111517;28;20400;-73
2022/09/29 00:56:18;;;;;;;2.50;1.60;;;9.40;99.90;;;;;;5111411;28;20530;-72
2022/09/29 00:59:01;;;;;;;1.70;1.60;;;9.40;99.90;;;;;;5091329;28;20473;-72
2022/09/29 01:01:30;;;;;;;1.70;1.60;;;9.40;99.90;;;;;;5091202;28;20394;-72
2022/09/29 01:04:02;;;;;;;2.00;1.63;;;9.50;99.90;;;;;;5091010;28;20477;-72
2022/09/29 01:06:33;;;;;;;1.42;1.33;;;9.40;99.90;;;;;;5091066;28;20381;-73
2022/09/29 01:09:03;;;;;;;1.50;1.40;;;9.50;99.90;;;;;;5091260;28;20374;-73
2022/09/29 01:11:30;;;;;;;1.80;1.70;;;9.40;99.90;;;;;;5090909;28;20397;-72
2022/09/29 01:14:02;;;;;;;1.50;1.40;;;9.40;99.90;;;;;;5082925;28;20964;-72
2022/09/29 01:16:31;;;;;;;2.13;1.60;;;9.40;99.90;;;;;;5111230;28;20384;-73
2022/09/29 01:19:15;;;;;;;1.95;1.63;;;9.40;99.90;;;;;;5111356;28;20910;-73
2022/09/29 01:22:00;;;;;;;2.03;1.77;;;9.40;99.90;;;;;;5111312;28;20401;-72
2022/09/29 01:24:55;;;;;;;1.70;1.60;;;9.30;99.90;;;;;;5090510;28;20387;-72
2022/09/29 01:27:47;;;;;;;2.03;1.65;;;9.40;99.90;;;;;;5090690;28;20442;-72
2022/09/29 01:30:40;;;;;;;3.15;1.50;;;9.40;99.90;;;;;;5108495;28;20392;-73
2022/09/29 01:33:28;;;;;;;1.95;1.70;;;9.40;99.90;;;;;;5111008;28;20407;-72
2022/09/29 01:36:20;;;;;;;1.90;1.67;;;9.40;99.90;;;;;;5110806;28;20419;-72
2022/09/29 01:39:32;;;;;;;2.35;1.55;;;9.30;99.90;;;;;;5111347;28;20404;-73
2022/09/29 01:42:03;;;;;;;1.50;1.40;;;9.40;99.90;;;;;;5086762;28;20400;-72
2022/09/29 01:44:38;;;;;;;1.87;1.43;;;9.50;99.90;;;;;;5110812;28;20909;-73
2022/09/29 01:47:22;;;;;;;1.53;1.40;;;9.50;99.90;;;;;;5110298;28;20541;-73
2022/09/29 01:49:54;;;;;;;1.75;1.35;;;9.40;99.90;;;;;;5092662;28;20898;-73
2022/09/29 01:52:25;;;;;;;1.70;1.50;;;9.40;99.90;;;;;;5110736;28;20431;-73
2022/09/29 01:55:01;;;;;;;1.10;1.00;;;9.50;99.90;;;;;;5110693;28;20753;-72
2022/09/29 01:57:47;;;;;;;2.40;1.50;;;9.40;99.90;;;;;;5110348;28;20728;-72
2022/09/29 02:00:15;;;;;;;2.45;1.60;;;9.40;99.90;;;;;;5110835;28;20429;-73
2022/09/29 02:02:46;;;;;;;2.30;1.70;;;9.40;99.90;;;;;;5110561;28;20885;-73
2022/09/29 02:05:35;;;;;;;2.20;1.50;;;9.40;99.90;;;;;;5110776;28;20467;-73
2022/09/29 02:08:13;;;;;;;2.40;1.38;;;9.40;99.90;;;;;;5092228;28;20384;-73
2022/09/29 02:11:16;;;;;;;6.00;1.90;;;9.40;99.90;;;;;;5092042;28;20392;-73
2022/09/29 02:14:01;;;;;;;1.80;1.70;;;9.50;99.90;;;;;;5007663;28;20881;-72
2022/09/29 02:16:34;;;;;;;2.80;1.90;;;9.40;99.90;;;;;;5084638;28;20437;-71
2022/09/29 02:19:20;;;;;;;2.40;1.73;;;9.40;99.90;;;;;;5090078;28;20465;-71
2022/09/29 02:21:46;;;;;;;2.42;1.70;;;9.30;99.90;;;;;;5090295;28;20409;-71
2022/09/29 02:24:12;;;;;;;1.57;1.47;;;9.30;99.90;;;;;;5112479;28;20437;-71
2022/09/29 02:26:40;;;;;;;1.80;1.50;;;9.40;99.90;;;;;;5114366;28;20456;-72
2022/09/29 02:29:07;;;;;;;2.50;1.77;;;9.30;99.90;;;;;;5114656;28;20877;-71
2022/09/29 02:31:34;;;;;;;1.95;1.75;;;9.30;99.90;;;;;;5114035;28;20881;-71
2022/09/29 02:34:00;;;;;;;1.80;1.70;;;9.20;99.90;;;;;;5113965;28;20488;-72
2022/09/29 02:37:24;;;;;;;1.73;1.63;;;9.20;99.90;;;;;;5114165;28;20381;-72
2022/09/29 02:39:49;;;;;;;2.03;1.77;;;9.20;99.90;;;;;;5011009;28;20404;-71
2022/09/29 02:42:28;;;;;;;2.00;1.75;;;9.20;99.90;;;;;;5011934;28;20478;-71
2022/09/29 02:45:15;;;;;;;1.70;1.60;;;9.20;99.90;;;;;;5067738;28;20384;-71
2022/09/29 02:48:02;;;;;;;2.17;1.67;;;9.10;99.90;;;;;;5114587;28;20368;-72
2022/09/29 02:50:51;;;;;;;2.90;1.90;;;9.00;99.90;;;;;;5114058;28;20388;-71
2022/09/29 02:53:31;;;;;;;2.00;1.80;;;9.00;99.90;;;;;;5113484;28;20561;-72
2022/09/29 02:56:22;;;;;;;2.00;1.80;;;9.00;99.90;;;;;;5093725;28;20487;-71
2022/09/29 02:59:09;;;;;;;2.00;1.80;;;9.00;99.90;;;;;;5082445;28;20463;-71
2022/09/29 03:01:45;;;;;;;3.00;1.70;;;8.90;99.90;;;;;;5093677;28;20388;-71
2022/09/29 03:04:10;;;;;;;2.20;1.67;;;8.90;99.90;;;;;;5093375;28;20914;-71
2022/09/29 03:06:36;;;;;;;2.70;1.80;;;9.10;99.90;;;;;;5093348;28;20378;-71
2022/09/29 03:09:01;;;;;;;3.50;1.90;;;9.10;99.90;;;;;;5105296;28;20395;-71
2022/09/29 03:11:27;;;;;;;2.40;1.80;;;9.00;99.90;;;;;;5113958;28;20380;-71
2022/09/29 03:13:53;;;;;;;2.10;1.90;;;9.10;99.90;;;;;;5113549;28;20403;-71
2022/09/29 03:16:18;;;;;;;2.80;1.88;;;9.00;99.90;;;;;;5095486;28;20388;-71
2022/09/29 03:18:44;;;;;;;1.97;1.80;;;9.00;99.90;;;;;;5113709;28;20376;-71
2022/09/29 03:21:09;;;;;;;1.93;1.60;;;9.00;99.90;;;;;;5113715;28;20371;-71
2022/09/29 03:23:35;;;;;;;2.07;1.70;;;9.00;99.90;;;;;;5103452;28;20396;-71
2022/09/29 03:26:00;;;;;;;2.20;1.60;;;9.10;99.90;;;;;;5112379;28;20742;-72
2022/09/29 03:28:26;;;;;;;2.83;1.70;;;9.10;99.90;;;;;;5113757;28;20388;-71
2022/09/29 03:30:54;;;;;;;1.70;1.60;;;9.00;99.90;;;;;;5113554;28;20381;-71
2022/09/29 03:33:19;;;;;;;2.40;1.70;;;9.00;99.90;;;;;;5094800;28;20411;-72
2022/09/29 03:35:45;;;;;;;1.40;1.30;;;9.00;99.90;;;;;;5112121;28;20384;-71
2022/09/29 03:38:10;;;;;;;1.63;1.53;;;8.90;99.90;;;;;;5113544;28;20862;-71
2022/09/29 03:40:36;;;;;;;2.30;2.10;;;8.90;99.90;;;;;;5113389;28;20455;-71
2022/09/29 03:43:01;;;;;;;2.08;1.73;;;9.00;99.90;;;;;;5112977;28;20384;-71
2022/09/29 03:45:27;;;;;;;1.70;1.60;;;9.00;99.90;;;;;;5113452;28;20385;-71
2022/09/29 03:47:53;;;;;;;2.20;1.70;;;9.10;99.90;;;;;;5113360;28;20376;-71
2022/09/29 03:50:18;;;;;;;2.87;1.50;;;9.10;99.90;;;;;;5113519;28;20715;-71
2022/09/29 03:52:44;;;;;;;1.63;1.53;;;9.10;99.90;;;;;;5112780;28;20442;-71
2022/09/29 03:55:09;;;;;;;2.50;2.00;;;9.00;99.90;;;;;;5113187;28;20468;-71
2022/09/29 03:57:35;;;;;;;2.17;1.50;;;8.90;99.90;;;;;;5113244;28;20463;-71
2022/09/29 04:00:01;;;;;;;2.60;1.80;;;8.90;99.90;;;;;;5113190;28;20391;-72
2022/09/29 04:02:26;;;;;;;2.28;2.08;;;9.00;99.90;;;;;;5112958;28;20380;-72
2022/09/29 04:04:52;;;;;;;2.10;1.90;;;9.10;99.90;;;;;;5094699;28;20380;-71
2022/09/29 04:07:17;;;;;;;2.90;2.10;;;9.00;99.90;;;;;;5112852;28;20388;-71
2022/09/29 04:09:43;;;;;;;2.70;2.00;;;9.00;99.90;;;;;;5112715;28;20391;-71
2022/09/29 04:12:08;;;;;;;2.37;1.80;;;9.10;99.90;;;;;;5112914;28;20372;-72
2022/09/29 04:14:34;;;;;;;3.38;1.75;;;9.00;99.90;;;;;;5112537;28;20392;-71
2022/09/29 04:16:59;;;;;;;1.77;1.67;;;8.90;99.90;;;;;;5112880;28;20425;-71
2022/09/29 04:19:25;;;;;;;2.60;1.73;;;9.00;99.90;;;;;;5112787;28;20826;-71
2022/09/29 04:21:50;;;;;;;2.20;2.00;;;9.00;99.90;;;;;;5112794;28;20449;-71
2022/09/29 04:24:16;;;;;;;1.90;1.60;;;8.90;99.90;;;;;;5112168;28;20396;-71
2022/09/29 04:26:41;;;;;;;2.03;1.83;;;9.00;99.90;;;;;;5112534;28;20469;-71
2022/09/29 04:29:07;;;;;;;2.92;2.00;;;9.00;99.90;;;;;;5112584;28;20388;-72
2022/09/29 04:31:32;;;;;;;1.93;1.67;;;8.90;99.90;;;;;;5112643;28;20444;-71
2022/09/29 04:33:58;;;;;;;2.30;1.60;;;9.00;99.90;;;;;;5112157;28;20500;-71
2022/09/29 04:36:23;;;;;;;3.37;2.00;;;9.00;99.90;;;;;;5126487;22;20477;-72
2022/09/29 04:38:50;;;;;;;1.90;1.80;;;9.00;99.90;;;;;;5086391;28;20394;-73
2022/09/29 04:41:16;;;;;;;2.20;2.00;;;9.00;99.90;;;;;;5091561;28;20393;-72
2022/09/29 04:43:42;;;;;;;2.22;2.03;;;9.00;99.90;;;;;;5089405;28;20482;-73
2022/09/29 04:46:08;;;;;;;2.00;1.90;;;9.00;99.90;;;;;;5090187;28;20437;-73
2022/09/29 04:48:34;;;;;;;3.00;2.20;;;9.10;99.90;;;;;;5107736;28;20407;-73
2022/09/29 04:51:00;;;;;;;2.40;2.20;;;9.10;99.90;;;;;;5109440;28;20392;-72
2022/09/29 04:53:26;;;;;;;3.25;2.15;;;9.10;99.90;;;;;;5089923;28;20403;-73
2022/09/29 04:55:52;;;;;;;2.90;2.30;;;9.10;99.90;;;;;;5110863;28;20401;-73
2022/09/29 04:58:17;;;;;;;3.47;2.80;;;9.20;99.90;;;;;;5109532;28;20449;-73
2022/09/29 05:00:43;;;;;;;2.80;2.23;;;9.10;99.90;;;;;;5106757;28;20405;-73
2022/09/29 05:03:09;;;;;;;2.50;2.30;;;9.10;99.90;;;;;;5108374;28;20499;-73
2022/09/29 05:05:34;;;;;;;3.40;2.30;;;9.10;99.90;;;;;;5110606;28;20404;-73
2022/09/29 05:08:03;;;;;;;3.67;2.70;;;9.10;99.90;;;;;;5104248;28;20416;-73
2022/09/29 05:10:29;;;;;;;2.60;2.38;;;9.10;99.90;;;;;;5106115;28;20402;-72
2022/09/29 05:12:54;;;;;;;4.40;2.40;;;9.10;99.90;;;;;;5109247;28;20480;-74
2022/09/29 05:15:20;;;;;;;2.83;2.63;;;9.00;99.90;;;;;;5110373;28;20397;-73
2022/09/29 05:17:46;;;;;;;2.97;2.78;;;9.00;99.90;;;;;;5110129;28;20769;-73
2022/09/29 05:20:12;;;;;;;2.75;2.55;;;9.00;99.90;;;;;;5109135;28;20435;-73
2022/09/29 05:22:37;;;;;;;11.07;8.75;;;9.00;99.90;;;;;;5108971;28;20429;-73
2022/09/29 05:25:03;;;;;;;4.28;3.88;;;9.10;99.90;;;;;;5109713;28;20400;-72
2022/09/29 05:27:29;;;;;;;3.90;3.50;;;9.10;99.90;;;;;;5109602;28;20453;-73
2022/09/29 05:29:54;;;;;;;2.97;2.50;;;9.10;99.90;;;;;;5105951;28;20409;-73
2022/09/29 05:32:20;;;;;;;3.75;2.90;;;9.10;99.90;;;;;;5106399;28;20528;-73
2022/09/29 05:34:45;;;;;;;3.40;2.93;;;9.20;99.90;;;;;;5109391;28;20824;-72
2022/09/29 05:37:11;;;;;;;3.00;2.70;;;9.20;99.90;;;;;;5108235;28;20457;-72
2022/09/29 05:39:37;;;;;;;2.83;2.53;;;9.30;99.90;;;;;;5105129;28;20386;-72
2022/09/29 05:42:05;;;;;;;2.87;2.67;;;9.20;99.90;;;;;;5097346;28;20403;-73
2022/09/29 05:44:31;;;;;;;2.78;1.83;;;9.20;99.90;;;;;;5091742;28;20897;-73
2022/09/29 05:46:56;;;;;;;2.60;2.30;;;9.20;99.90;;;;;;5092504;28;20396;-73
2022/09/29 05:49:22;;;;;;;2.90;2.30;;;9.10;99.90;;;;;;5110793;28;20391;-73
2022/09/29 05:51:48;;;;;;;2.47;2.10;;;9.20;99.90;;;;;;5107997;28;20407;-73
2022/09/29 05:54:13;;;;;;;3.47;1.90;;;9.10;99.90;;;;;;5110142;28;20412;-74
2022/09/29 05:56:39;;;;;;;3.50;2.00;;;9.10;99.90;;;;;;5092116;28;20393;-73
2022/09/29 05:59:04;;;;;;;3.03;2.60;;;9.20;99.90;;;;;;5105474;28;20404;-72
2022/09/29 06:01:31;;;;;;;2.30;2.10;;;9.10;99.90;;;;;;5109545;28;20396;-73
2022/09/29 06:03:57;;;;;;;3.10;2.40;;;9.10;99.90;;;;;;5106832;28;20399;-73
2022/09/29 06:06:25;;;;;;;2.40;2.20;;;9.10;99.90;;;;;;5110502;28;20388;-73
2022/09/29 06:08:51;;;;;;;2.20;2.00;;;9.20;99.90;;;;;;5110432;28;20434;-74
2022/09/29 06:11:19;;;;;;;2.30;2.10;;;9.20;99.90;;;;;;5110421;28;20396;-73
2022/09/29 06:13:47;;;;;;;2.40;2.20;;;9.20;99.90;;;;;;5092054;28;20854;-72
2022/09/29 06:16:14;;;;;;;2.60;2.40;;;9.30;99.90;;;;;;5106861;28;20399;-73
2022/09/29 06:18:40;;;;;;;2.80;2.20;;;9.30;99.90;;;;;;5108454;28;20966;-73
2022/09/29 06:21:14;;;;;;;2.70;2.50;;;9.30;99.90;;;;;;5100349;28;20393;-73
2022/09/29 06:23:40;;;;;;;2.70;2.00;;;9.30;99.90;;;;;;5107379;28;20408;-73
2022/09/29 06:26:08;;;;;;;2.20;1.90;;;9.30;99.90;;;;;;5109167;28;20400;-72
2022/09/29 06:28:33;;;;;;;2.30;1.90;;;9.40;99.90;;;;;;5107828;28;20435;-74
2022/09/29 06:31:05;;;;;;;2.90;2.20;;;9.30;99.90;;;;;;5107614;28;20517;-73
2022/09/29 06:33:31;;;;;;;2.70;2.50;;;9.20;99.90;;;;;;5082281;28;20770;-74
2022/09/29 06:38:42;;;;;;;2.50;2.30;;;9.30;99.90;;;;;;5108307;28;20556;-73
2022/09/29 06:41:08;;;;;;;2.50;2.20;;;9.30;99.90;;;;;;5109867;28;20392;-73
2022/09/29 06:43:34;;;;;;;2.47;2.20;;;9.30;99.90;;;;;;5107807;28;20511;-73
2022/09/29 06:46:00;;;;;;;2.35;2.00;;;9.30;99.90;;;;;;5107018;28;20762;-73
2022/09/29 06:48:28;;;;;;;2.30;2.00;;;9.40;99.90;;;;;;5105719;28;20924;-73
2022/09/29 06:50:54;;;;;;;2.20;2.00;;;9.50;99.90;;;;;;5102898;28;20409;-73
2022/09/29 06:53:20;;;;;;;3.20;2.40;;;9.60;99.90;;;;;;5107400;28;20419;-73
2022/09/29 06:55:55;;;;;;;2.80;2.60;;;9.60;99.90;;;;;;5108012;28;20376;-73
2022/09/29 06:58:22;;;;;;;2.47;2.28;;;9.70;99.90;;;;;;5109063;28;20480;-73
2022/09/29 07:00:48;;;;;;;3.10;2.30;;;9.70;99.90;;;;;;5118223;28;20808;-73
2022/09/29 07:03:13;;;;;;;2.30;2.10;;;9.80;99.90;;;;;;5109498;28;20399;-73
2022/09/29 07:05:39;;;;;;;2.65;2.45;;;9.80;99.90;;;;;;5101142;28;20408;-74
2022/09/29 07:08:05;;;;;;;2.78;2.10;;;9.70;99.90;;;;;;5102183;28;20400;-73
2022/09/29 07:10:30;;;;;;;2.40;2.20;;;9.80;99.90;;;;;;5109647;28;20405;-73
2022/09/29 07:12:56;;;;;;;2.40;2.20;;;9.80;99.90;;;;;;5107382;28;20499;-73
2022/09/29 07:15:22;;;;;;;2.77;2.40;;;9.90;99.90;;;;;;5110852;28;20487;-73
2022/09/29 07:17:50;;;;;;;2.00;1.90;;;9.80;99.90;;;;;;5112718;28;20420;-72
2022/09/29 07:20:16;;;;;;;2.80;2.60;;;9.90;99.90;;;;;;5113661;28;20483;-73
2022/09/29 07:22:45;;;;;;;3.00;2.80;;;10.10;99.90;;;;;;5113322;28;21056;-73
2022/09/29 07:25:11;;;;;;;2.70;2.50;;;10.20;99.90;;;;;;5113808;28;20981;-73
2022/09/29 07:27:37;;;;;;;3.30;2.45;;;10.10;99.90;;;;;;5113776;28;20451;-73
2022/09/29 07:30:03;;;;;;;3.40;2.28;;;10.10;99.90;;;;;;5113679;28;20380;-73
2022/09/29 07:32:31;;;;;;;2.47;1.70;;;10.00;99.90;;;;;;5113107;28;20908;-73
2022/09/29 07:34:57;;;;;;;3.10;2.30;;;10.10;99.90;;;;;;5113611;28;20445;-72
2022/09/29 07:37:24;;;;;;;2.53;1.97;;;10.20;99.90;;;;;;5113207;28;20399;-72
2022/09/29 07:39:50;;;;;;;2.45;1.67;;;10.40;99.90;;;;;;5113362;28;20845;-73
2022/09/29 07:42:17;;;;;;;1.80;1.70;;;10.40;99.90;;;;;;5095431;28;20885;-72
2022/09/29 07:44:42;;;;;;;3.00;2.28;;;10.40;99.90;;;;;;5113015;28;20387;-73
2022/09/29 07:47:08;;;;;;;1.60;1.50;;;10.30;99.90;;;;;;5111991;28;20449;-73
2022/09/29 07:49:34;;;;;;;2.10;1.90;;;10.30;99.90;;;;;;5093502;28;20380;-73
2022/09/29 07:51:59;;;;;;;2.00;1.90;;;10.40;99.90;;;;;;5111321;28;20401;-73
2022/09/29 07:54:25;;;;;;;2.10;1.90;;;10.40;99.90;;;;;;5111265;28;20403;-72
2022/09/29 07:56:50;;;;;;;3.80;2.08;;;10.50;99.90;;;;;;5112554;28;20683;-73
2022/09/29 07:59:16;;;;;;;1.93;1.77;;;10.50;99.90;;;;;;5113152;28;20495;-72
2022/09/29 08:01:42;;;;;;;1.70;1.53;;;10.60;99.90;;;;;;5113010;28;20889;-73
2022/09/29 08:04:08;;;;;;;2.80;1.80;;;10.60;99.90;;;;;;5112858;28;20380;-73
2022/09/29 08:06:33;;;;;;;2.60;2.40;;;10.50;99.90;;;;;;5094241;28;20908;-73
2022/09/29 08:09:01;;;;;;;2.53;2.20;;;10.70;99.90;;;;;;5113046;28;20443;-73
2022/09/29 08:11:27;;;;;;;1.90;1.80;;;10.70;99.90;;;;;;5112889;28;20380;-73
2022/09/29 08:13:52;;;;;;;1.92;1.80;;;10.70;99.90;;;;;;5094313;28;20392;-73
2022/09/29 08:16:19;;;;;;;2.10;1.90;;;10.70;99.90;;;;;;5094542;28;20392;-73
2022/09/29 08:18:45;;;;;;;2.53;1.80;;;10.70;99.90;;;;;;5112940;28;20402;-73
2022/09/29 08:21:13;;;;;;;1.70;1.60;;;10.70;99.90;;;;;;5111580;28;20467;-73
2022/09/29 08:23:41;;;;;;;1.63;1.52;;;10.70;99.90;;;;;;5097633;28;20886;-73
2022/09/29 08:26:09;;;;;;;3.53;1.70;;;10.80;99.90;;;;;;5092185;28;20393;-73
2022/09/29 08:28:40;;;;;;;2.33;1.60;;;10.80;99.90;;;;;;5092231;28;20848;-73
2022/09/29 08:31:12;;;;;;;1.70;1.50;;;10.80;99.90;;;;;;5092180;28;20382;-72
2022/09/29 08:33:38;;;;;;;1.70;1.60;;;10.70;99.90;;;;;;5091730;28;20914;-73
2022/09/29 08:36:13;;;;;;;2.42;2.22;;;10.70;99.90;;;;;;5096585;28;20393;-73
2022/09/29 08:38:41;;;;;;;2.17;2.08;;;10.80;99.90;;;;;;5112516;28;20419;-73
2022/09/29 08:41:21;;;;;;;3.10;1.90;;;10.80;99.90;;;;;;5093026;28;20388;-73
2022/09/29 08:43:49;;;;;;;1.60;1.50;;;10.80;99.90;;;;;;5111884;28;20403;-74
2022/09/29 08:46:32;;;;;;;3.90;1.80;;;10.80;99.90;;;;;;5112116;28;20380;-74
2022/09/29 08:49:01;;;;;;;1.70;1.50;;;10.90;99.90;;;;;;5112116;28;20376;-73
2022/09/29 08:51:35;;;;;;;2.40;1.33;;;11.00;99.90;;;;;;5112205;28;20384;-73
2022/09/29 08:54:12;;;;;;;1.70;1.60;;;11.10;99.90;;;;;;5093469;28;20396;-73
2022/09/29 08:56:38;;;;;;;1.60;1.50;;;11.10;99.90;;;;;;5111733;28;20468;-73
2022/09/29 08:59:03;;;;;;;2.22;1.70;;;11.10;99.90;;;;;;5093600;28;21070;-73
2022/09/29 09:01:52;;;;;;;1.80;1.70;;;11.10;99.90;;;;;;5111929;28;20379;-73
2022/09/29 09:04:35;;;;;;;2.70;2.10;;;11.10;99.90;;;;;;5111787;28;20788;-73
2022/09/29 09:07:34;;;;;;;1.88;1.42;;;11.20;99.90;;;;;;5111822;28;20384;-72
2022/09/29 09:10:29;;;;;;;1.20;1.20;;;11.20;99.90;;;;;;5111901;28;20376;-73
2022/09/29 09:13:07;;;;;;;1.70;1.40;;;11.20;99.90;;;;;;5111371;28;20494;-73
2022/09/29 09:15:52;;;;;;;1.80;1.30;;;11.00;99.90;;;;;;5110571;28;20388;-73
2022/09/29 09:18:27;;;;;;;1.75;1.27;;;11.10;99.90;;;;;;5111608;28;20970;-74
2022/09/29 09:21:10;;;;;;;1.10;1.00;;;11.20;99.90;;;;;;5111603;28;20380;-73
2022/09/29 09:23:41;;;;;;;1.40;1.30;;;11.20;99.90;;;;;;5096892;28;20388;-73
2022/09/29 09:26:08;;;;;;;1.50;1.40;;;11.20;99.90;;;;;;5091011;28;20755;-73
2022/09/29 09:28:40;;;;;;;1.48;1.10;;;11.30;99.90;;;;;;5110982;28;20487;-73
2022/09/29 09:31:15;;;;;;;1.75;1.30;;;11.40;99.90;;;;;;5111477;28;20391;-73
2022/09/29 09:33:42;;;;;;;1.20;1.10;;;11.50;99.90;;;;;;5110617;28;20428;-74
2022/09/29 09:36:17;;;;;;;1.65;1.15;;;11.50;99.90;;;;;;5092609;28;20442;-73
2022/09/29 09:39:05;;;;;;;1.90;1.30;;;11.60;99.90;;;;;;5092614;28;20392;-73
2022/09/29 09:41:34;;;;;;;1.88;1.30;;;11.80;99.90;;;;;;5111382;28;20455;-73
2022/09/29 09:44:24;;;;;;;1.40;1.17;;;11.70;99.90;;;;;;5110876;28;20429;-73
2022/09/29 09:46:58;;;;;;;1.50;1.30;;;11.90;99.90;;;;;;5090155;28;20393;-73
2022/09/29 09:49:42;;;;;;;1.40;1.30;;;12.00;99.90;;;;;;5107859;28;20399;-74
2022/09/29 09:52:10;;;;;;;1.60;1.50;;;11.80;99.90;;;;;;5104532;28;20490;-73
2022/09/29 09:54:41;;;;;;;3.25;1.70;;;11.80;99.90;;;;;;5107909;28;20532;-74
2022/09/29 09:57:19;;;;;;;4.20;1.50;;;12.00;99.90;;;;;;5105886;28;20402;-73
2022/09/29 10:00:25;;;;;;;1.50;1.30;;;12.10;99.90;;;;;;5108974;28;20483;-73
2022/09/29 10:02:55;;;;;;;0.90;0.90;;;12.10;99.90;;;;;;5042233;28;20546;-73
2022/09/29 10:05:33;;;;;;;0.70;0.70;;;12.10;99.90;;;;;;5089765;28;20382;-73
2022/09/29 10:07:59;;;;;;;1.23;1.13;;;12.00;99.90;;;;;;5094039;28;20470;-74
2022/09/29 10:10:28;;;;;;;1.38;0.70;;;11.90;99.90;;;;;;5108652;28;20413;-73
2022/09/29 10:13:10;;;;;;;2.22;0.70;;;12.00;99.90;;;;;;5109842;28;20380;-72
2022/09/29 10:16:10;;;;;;;1.90;0.80;;;12.00;99.90;;;;;;5110709;28;20388;-73
2022/09/29 10:18:39;;;;;;;2.10;0.90;;;11.80;99.90;;;;;;5078495;28;20380;-74
2022/09/29 10:21:25;;;;;;;1.03;0.90;;;12.00;99.90;;;;;;5110481;28;20861;-74
2022/09/29 10:23:52;;;;;;;0.93;0.82;;;12.20;99.90;;;;;;5096768;28;20410;-73
2022/09/29 10:26:28;;;;;;;0.82;0.82;;;12.30;99.90;;;;;;5106366;28;20903;-73
2022/09/29 10:28:57;;;;;;;2.50;1.10;;;12.30;99.90;;;;;;5109858;28;20396;-74
2022/09/29 10:31:25;;;;;;;1.10;1.00;;;12.40;99.90;;;;;;5107231;28;20396;-73
2022/09/29 10:34:09;;;;;;;1.30;1.10;;;12.60;99.90;;;;;;5090449;28;20792;-73
2022/09/29 10:36:55;;;;;;;1.30;1.08;;;12.50;99.90;;;;;;5130919;22;20435;-68
2022/09/29 10:39:42;;;;;;;2.33;1.20;;;12.50;99.90;;;;;;5126655;28;20539;-69
2022/09/29 10:42:24;;;;;;;1.50;1.20;;;12.60;99.90;;;;;;5127479;28;20786;-70
2022/09/29 10:45:00;;;;;;;1.48;1.35;;;12.60;99.90;;;;;;5133439;27;20852;-71
2022/09/29 10:47:25;;;;;;;1.95;1.75;;;12.60;99.90;;;;;;5112056;27;20408;-71
2022/09/29 10:50:31;;;;;;;2.90;2.38;;;12.70;99.90;;;;;;5114970;28;20467;-71
2022/09/29 10:53:06;;;;;;;2.70;2.20;;;12.70;99.90;;;;;;5070568;28;20449;-70
2022/09/29 10:55:46;;;;;;;6.00;2.50;;;12.70;99.90;;;;;;5109675;28;20408;-71
2022/09/29 10:58:20;;;;;;;3.38;2.30;;;12.50;99.90;;;;;;5108962;27;20854;-69
2022/09/29 11:00:47;;;;;;;2.20;2.00;;;12.50;99.90;;;;;;5110054;28;20441;-71
2022/09/29 11:03:27;;;;;;;3.20;1.97;;;12.60;99.90;;;;;;5108961;27;20478;-71
2022/09/29 11:06:04;;;;;;;3.22;2.17;;;12.40;99.90;;;;;;5112537;27;20402;-69
2022/09/29 11:08:30;;;;;;;2.65;2.40;;;12.40;99.90;;;;;;5114054;27;20817;-70
2022/09/29 11:11:05;;;;;;;2.60;1.90;;;12.40;99.90;;;;;;5112197;28;20376;-70
2022/09/29 11:13:43;;;;;;;2.30;2.10;;;12.50;99.90;;;;;;5113762;28;20400;-70
2022/09/29 11:16:18;;;;;;;1.80;1.70;;;12.60;99.90;;;;;;5113268;28;20505;-71
2022/09/29 11:18:48;;;;;;;2.00;1.80;;;12.60;99.90;;;;;;5112882;28;20376;-69
2022/09/29 11:21:20;;;;;;;1.60;1.50;;;12.50;99.90;;;;;;5114108;28;20995;-70
2022/09/29 11:24:16;;;;;;;1.88;1.55;;;12.60;99.90;;;;;;5113471;28;20395;-69
2022/09/29 11:26:52;;;;;;;2.00;1.70;;;12.50;99.90;;;;;;5113405;28;20480;-71
2022/09/29 11:29:32;;;;;;;1.40;1.30;;;12.60;99.90;;;;;;5113563;28;20396;-69
2022/09/29 11:32:44;;;;;;;1.60;1.02;;;12.60;99.90;;;;;;5113548;28;20924;-68
2022/09/29 11:35:41;;;;;;;2.40;1.40;;;12.70;99.90;;;;;;5083485;28;20878;-69
2022/09/29 11:38:38;;;;;;;1.60;1.40;;;12.70;99.90;;;;;;5094311;28;20400;-69
2022/09/29 11:41:18;;;;;;;1.83;1.30;;;12.70;99.90;;;;;;5113310;28;20404;-68
2022/09/29 11:43:46;;;;;;;2.00;1.40;;;12.90;99.90;;;;;;5112838;28;20388;-69
2022/09/29 11:46:55;;;;;;;1.70;1.30;;;12.80;99.90;;;;;;5113200;28;21089;-69
2022/09/29 11:49:47;;;;;;;1.40;1.00;;;12.80;99.90;;;;;;5113334;28;20407;-68
2022/09/29 11:52:36;;;;;;;1.20;1.10;;;12.80;99.90;;;;;;5093442;28;20383;-69
2022/09/29 11:55:31;;;;;;;2.30;1.10;;;12.90;99.90;;;;;;5112196;28;20545;-69
2022/09/29 11:58:17;;;;;;;1.30;1.00;;;12.80;99.90;;;;;;5112890;28;20385;-69
2022/09/29 12:01:06;;;;;;;1.27;1.15;;;12.90;99.90;;;;;;5111979;28;20989;-68
2022/09/29 12:03:41;;;;;;;1.38;1.20;;;12.90;99.90;;;;;;5104677;28;20403;-69
2022/09/29 12:06:28;;;;;;;1.63;1.52;;;12.90;99.90;;;;;;5113366;28;20380;-69
2022/09/29 12:09:32;;;;;;;2.05;1.17;;;13.00;99.90;;;;;;5113053;28;20900;-69
2022/09/29 12:12:21;;;;;;;1.50;1.30;;;12.90;99.90;;;;;;5109580;28;20786;-69
2022/09/29 12:15:09;;;;;;;1.53;1.23;;;13.10;99.90;;;;;;5109605;28;20522;-68
2022/09/29 12:17:42;;;;;;;2.15;1.95;;;13.10;99.90;;;;;;5108176;28;20388;-69
2022/09/29 12:20:29;;;;;;;2.25;1.70;;;13.00;99.90;;;;;;5109752;28;20396;-69
2022/09/29 12:23:00;;;;;;;1.63;1.52;;;12.90;99.90;;;;;;5109002;28;20389;-69
2022/09/29 12:25:27;;;;;;;2.73;1.70;;;12.90;99.90;;;;;;5111707;28;20387;-69
2022/09/29 12:28:00;;;;;;;1.65;1.50;;;13.00;99.90;;;;;;5107774;28;20940;-69
2022/09/29 12:30:28;;;;;;;1.92;1.25;;;13.00;99.90;;;;;;5106910;28;21008;-68
2022/09/29 12:33:09;;;;;;;1.60;1.20;;;13.00;99.90;;;;;;5111710;28;20438;-69
2022/09/29 12:35:54;;;;;;;1.40;1.10;;;12.90;99.90;;;;;;5102534;28;20390;-69
2022/09/29 12:38:41;;;;;;;1.40;1.30;;;13.00;99.90;;;;;;5109982;27;20392;-68
2022/09/29 12:41:25;;;;;;;1.50;1.40;;;13.10;99.90;;;;;;5098486;28;20764;-70
2022/09/29 12:44:09;;;;;;;1.50;1.40;;;13.20;99.90;;;;;;5104678;28;20764;-69
2022/09/29 12:46:41;;;;;;;1.42;1.33;;;13.10;99.90;;;;;;5100673;28;20780;-70
2022/09/29 12:49:40;;;;;;;1.65;1.20;;;13.10;99.90;;;;;;5102994;28;20409;-70
2022/09/29 12:52:21;;;;;;;2.50;1.88;;;13.00;99.90;;;;;;5101535;28;20401;-68
2022/09/29 12:54:55;;;;;;;2.25;1.73;;;13.10;99.90;;;;;;5102402;28;20404;-68
2022/09/29 12:57:29;;;;;;;1.70;1.60;;;12.90;99.90;;;;;;5104363;28;20412;-69
2022/09/29 13:00:06;;;;;;;1.65;1.55;;;12.90;99.90;;;;;;5105030;28;20475;-69
2022/09/29 13:02:47;;;;;;;2.40;1.85;;;12.90;99.90;;;;;;5104426;28;20384;-69
2022/09/29 13:05:35;;;;;;;1.83;1.63;;;12.90;99.90;;;;;;5100345;28;20386;-69
2022/09/29 13:08:19;;;;;;;2.25;1.65;;;12.80;99.90;;;;;;5100903;28;20476;-69
2022/09/29 13:11:01;;;;;;;2.40;1.73;;;12.90;99.90;;;;;;5101316;28;20368;-70
2022/09/29 13:13:45;;;;;;;1.80;1.48;;;12.90;99.90;;;;;;5099114;28;20402;-69
2022/09/29 13:16:11;;;;;;;1.80;1.60;;;13.10;99.90;;;;;;5099950;28;20923;-69
2022/09/29 13:18:45;;;;;;;1.50;1.40;;;13.00;99.90;;;;;;5100368;28;20434;-68
2022/09/29 13:21:43;;;;;;;1.67;1.58;;;13.00;99.90;;;;;;5099082;28;20404;-70
2022/09/29 13:24:19;;;;;;;1.88;1.52;;;13.00;99.90;;;;;;5101897;28;21184;-70